sensor_id;sensor_type;location;lat;lon;timestamp;temperature;humidity
59556;DHT22;45374;52.746;6.304;2022-12-07T00:02:14;3.30;99.90
59556;DHT22;45374;52.746;6.304;2022-12-07T00:04:40;3.40;99.90
59556;DHT22;45374;52.746;6.304;2022-12-07T00:07:05;3.30;99.90
59556;DHT22;45374;52.746;6.304;2022-12-07T00:09:31;3.30;99.90
59556;DHT22;45374;52.746;6.304;2022-12-07T00:11:56;3.40;99.90
59556;DHT22;45374;52.746;6.304;2022-12-07T00:14:22;3.40;99.90
59556;DHT22;45374;52.746;6.304;2022-12-07T00:16:48;3.50;99.90
59556;DHT22;45374;52.746;6.304;2022-12-07T00:19:14;3.50;99.90
59556;DHT22;45374;52.746;6.304;2022-12-07T00:21:39;3.50;99.90
59556;DHT22;45374;52.746;6.304;2022-12-07T00:24:05;3.50;99.90
59556;DHT22;45374;52.746;6.304;2022-12-07T00:26:37;3.50;99.90
59556;DHT22;45374;52.746;6.304;2022-12-07T00:29:04;3.40;99.90
59556;DHT22;45374;52.746;6.304;2022-12-07T00:31:31;3.40;99.90
59556;DHT22;45374;52.746;6.304;2022-12-07T00:33:58;3.30;99.90
59556;DHT22;45374;52.746;6.304;2022-12-07T00:36:24;3.40;99.90
59556;DHT22;45374;52.746;6.304;2022-12-07T00:38:50;3.30;99.90
59556;DHT22;45374;52.746;6.304;2022-12-07T00:41:17;3.30;99.90
59556;DHT22;45374;52.746;6.304;2022-12-07T00:43:43;3.30;99.90
59556;DHT22;45374;52.746;6.304;2022-12-07T00:46:08;3.40;99.90
59556;DHT22;45374;52.746;6.304;2022-12-07T00:48:34;3.30;99.90
59556;DHT22;45374;52.746;6.304;2022-12-07T00:51:00;3.30;99.90
59556;DHT22;45374;52.746;6.304;2022-12-07T00:53:26;3.30;99.90
59556;DHT22;45374;52.746;6.304;2022-12-07T00:55:51;3.20;99.90
59556;DHT22;45374;52.746;6.304;2022-12-07T00:58:18;3.30;99.90
59556;DHT22;45374;52.746;6.304;2022-12-07T01:00:43;3.20;99.90
59556;DHT22;45374;52.746;6.304;2022-12-07T01:03:09;3.20;99.90
59556;DHT22;45374;52.746;6.304;2022-12-07T01:05:35;3.20;99.90
59556;DHT22;45374;52.746;6.304;2022-12-07T01:08:01;3.30;99.90
59556;DHT22;45374;52.746;6.304;2022-12-07T01:10:27;3.30;99.90
59556;DHT22;45374;52.746;6.304;2022-12-07T01:12:52;3.30;99.90
59556;DHT22;45374;52.746;6.304;2022-12-07T01:15:18;3.20;99.90
59556;DHT22;45374;52.746;6.304;2022-12-07T01:17:44;3.20;99.90
59556;DHT22;45374;52.746;6.304;2022-12-07T01:20:09;3.20;99.90
59556;DHT22;45374;52.746;6.304;2022-12-07T01:22:38;3.10;99.90
59556;DHT22;45374;52.746;6.304;2022-12-07T01:25:05;3.10;99.90
59556;DHT22;45374;52.746;6.304;2022-12-07T01:27:30;3.20;99.90
59556;DHT22;45374;52.746;6.304;2022-12-07T01:29:56;3.10;99.90
59556;DHT22;45374;52.746;6.304;2022-12-07T01:32:21;3.20;99.90
59556;DHT22;45374;52.746;6.304;2022-12-07T01:34:50;3.20;99.90
59556;DHT22;45374;52.746;6.304;2022-12-07T01:37:15;3.20;99.90
59556;DHT22;45374;52.746;6.304;2022-12-07T01:39:41;3.20;99.90
59556;DHT22;45374;52.746;6.304;2022-12-07T01:42:10;3.30;99.90
59556;DHT22;45374;52.746;6.304;2022-12-07T01:47:20;3.10;99.90
59556;DHT22;45374;52.746;6.304;2022-12-07T01:49:46;3.10;99.90
59556;DHT22;45374;52.746;6.304;2022-12-07T01:52:31;3.00;99.90
59556;DHT22;45374;52.746;6.304;2022-12-07T01:54:59;2.90;99.90
59556;DHT22;45374;52.746;6.304;2022-12-07T01:57:25;2.80;99.90
59556;DHT22;45374;52.746;6.304;2022-12-07T01:59:51;2.70;99.90
59556;DHT22;45374;52.746;6.304;2022-12-07T02:03:03;2.80;99.90
59556;DHT22;45374;52.746;6.304;2022-12-07T02:05:06;2.90;99.90
59556;DHT22;45374;52.746;6.304;2022-12-07T02:07:32;2.90;99.90
59556;DHT22;45374;52.746;6.304;2022-12-07T02:10:11;2.90;99.90
59556;DHT22;45374;52.746;6.304;2022-12-07T02:12:37;2.90;99.90
59556;DHT22;45374;52.746;6.304;2022-12-07T02:15:02;2.90;99.90
59556;DHT22;45374;52.746;6.304;2022-12-07T02:17:30;2.90;99.90
59556;DHT22;45374;52.746;6.304;2022-12-07T02:28:04;2.70;99.90
59556;DHT22;45374;52.746;6.304;2022-12-07T02:30:31;2.70;99.90
59556;DHT22;45374;52.746;6.304;2022-12-07T02:33:00;2.60;99.90
59556;DHT22;45374;52.746;6.304;2022-12-07T02:35:39;2.60;99.90
59556;DHT22;45374;52.746;6.304;2022-12-07T02:38:14;2.70;99.90
59556;DHT22;45374;52.746;6.304;2022-12-07T02:40:47;2.80;99.90
59556;DHT22;45374;52.746;6.304;2022-12-07T02:45:40;2.70;99.90
59556;DHT22;45374;52.746;6.304;2022-12-07T02:48:06;2.70;99.90
59556;DHT22;45374;52.746;6.304;2022-12-07T02:50:33;2.70;99.90
59556;DHT22;45374;52.746;6.304;2022-12-07T02:52:59;2.60;99.90
59556;DHT22;45374;52.746;6.304;2022-12-07T02:55:29;2.70;99.90
59556;DHT22;45374;52.746;6.304;2022-12-07T03:00:23;2.70;99.90
59556;DHT22;45374;52.746;6.304;2022-12-07T03:02:53;2.90;99.90
59556;DHT22;45374;52.746;6.304;2022-12-07T03:07:50;3.20;99.90
59556;DHT22;45374;52.746;6.304;2022-12-07T03:10:19;3.40;99.90
59556;DHT22;45374;52.746;6.304;2022-12-07T03:15:13;3.80;99.90
59556;DHT22;45374;52.746;6.304;2022-12-07T03:17:40;3.80;99.90
59556;DHT22;45374;52.746;6.304;2022-12-07T03:20:08;3.80;99.90
59556;DHT22;45374;52.746;6.304;2022-12-07T03:22:34;3.90;99.90
59556;DHT22;45374;52.746;6.304;2022-12-07T03:25:03;3.90;99.90
59556;DHT22;45374;52.746;6.304;2022-12-07T03:27:34;3.90;99.90
59556;DHT22;45374;52.746;6.304;2022-12-07T03:30:05;4.00;99.90
59556;DHT22;45374;52.746;6.304;2022-12-07T03:32:53;4.00;99.90
59556;DHT22;45374;52.746;6.304;2022-12-07T03:35:18;4.00;99.90
59556;DHT22;45374;52.746;6.304;2022-12-07T03:37:49;3.80;99.90
59556;DHT22;45374;52.746;6.304;2022-12-07T03:42:51;3.70;99.90
59556;DHT22;45374;52.746;6.304;2022-12-07T03:45:17;3.50;99.90
59556;DHT22;45374;52.746;6.304;2022-12-07T03:50:13;3.30;99.90
59556;DHT22;45374;52.746;6.304;2022-12-07T03:52:42;3.20;99.90
59556;DHT22;45374;52.746;6.304;2022-12-07T03:55:11;3.20;99.90
59556;DHT22;45374;52.746;6.304;2022-12-07T03:57:40;3.10;99.90
59556;DHT22;45374;52.746;6.304;2022-12-07T04:00:06;3.20;99.90
59556;DHT22;45374;52.746;6.304;2022-12-07T04:02:33;3.30;99.90
59556;DHT22;45374;52.746;6.304;2022-12-07T04:04:58;3.30;99.90
59556;DHT22;45374;52.746;6.304;2022-12-07T04:07:24;3.30;99.90
59556;DHT22;45374;52.746;6.304;2022-12-07T04:09:49;3.10;99.90
59556;DHT22;45374;52.746;6.304;2022-12-07T04:12:15;3.10;99.90
59556;DHT22;45374;52.746;6.304;2022-12-07T04:14:40;3.00;99.90
59556;DHT22;45374;52.746;6.304;2022-12-07T04:17:06;3.00;99.90
59556;DHT22;45374;52.746;6.304;2022-12-07T04:19:32;2.80;99.90
59556;DHT22;45374;52.746;6.304;2022-12-07T04:21:59;2.80;99.90
59556;DHT22;45374;52.746;6.304;2022-12-07T04:24:25;2.70;99.90
59556;DHT22;45374;52.746;6.304;2022-12-07T04:26:50;2.70;99.90
59556;DHT22;45374;52.746;6.304;2022-12-07T04:29:16;2.80;99.90
59556;DHT22;45374;52.746;6.304;2022-12-07T04:31:42;2.70;99.90
59556;DHT22;45374;52.746;6.304;2022-12-07T04:34:07;2.80;99.90
59556;DHT22;45374;52.746;6.304;2022-12-07T04:36:33;2.80;99.90
59556;DHT22;45374;52.746;6.304;2022-12-07T04:38:59;2.60;99.90
59556;DHT22;45374;52.746;6.304;2022-12-07T04:41:25;2.60;99.90
59556;DHT22;45374;52.746;6.304;2022-12-07T04:43:54;2.60;99.90
59556;DHT22;45374;52.746;6.304;2022-12-07T04:46:20;2.60;99.90
59556;DHT22;45374;52.746;6.304;2022-12-07T04:48:45;2.60;99.90
59556;DHT22;45374;52.746;6.304;2022-12-07T04:51:11;2.60;99.90
59556;DHT22;45374;52.746;6.304;2022-12-07T04:53:36;2.50;99.90
59556;DHT22;45374;52.746;6.304;2022-12-07T04:56:02;2.50;99.90
59556;DHT22;45374;52.746;6.304;2022-12-07T04:58:27;2.50;99.90
59556;DHT22;45374;52.746;6.304;2022-12-07T05:00:54;2.50;99.90
59556;DHT22;45374;52.746;6.304;2022-12-07T05:03:19;2.40;99.90
59556;DHT22;45374;52.746;6.304;2022-12-07T05:05:45;2.50;99.90
59556;DHT22;45374;52.746;6.304;2022-12-07T05:08:10;2.60;99.90
59556;DHT22;45374;52.746;6.304;2022-12-07T05:10:36;2.50;99.90
59556;DHT22;45374;52.746;6.304;2022-12-07T05:13:01;2.50;99.90
59556;DHT22;45374;52.746;6.304;2022-12-07T05:15:26;2.60;99.90
59556;DHT22;45374;52.746;6.304;2022-12-07T05:17:52;2.50;99.90
59556;DHT22;45374;52.746;6.304;2022-12-07T05:20:17;2.40;99.90
59556;DHT22;45374;52.746;6.304;2022-12-07T05:22:43;2.50;99.90
59556;DHT22;45374;52.746;6.304;2022-12-07T05:25:08;2.50;99.90
59556;DHT22;45374;52.746;6.304;2022-12-07T05:27:34;2.40;99.90
59556;DHT22;45374;52.746;6.304;2022-12-07T05:29:59;2.40;99.90
59556;DHT22;45374;52.746;6.304;2022-12-07T05:32:25;2.30;99.90
59556;DHT22;45374;52.746;6.304;2022-12-07T05:34:50;2.30;99.90
59556;DHT22;45374;52.746;6.304;2022-12-07T05:37:16;2.30;99.90
59556;DHT22;45374;52.746;6.304;2022-12-07T05:39:41;2.20;99.90
59556;DHT22;45374;52.746;6.304;2022-12-07T05:42:08;2.20;99.90
59556;DHT22;45374;52.746;6.304;2022-12-07T05:44:41;2.30;99.90
59556;DHT22;45374;52.746;6.304;2022-12-07T05:47:07;2.20;99.90
59556;DHT22;45374;52.746;6.304;2022-12-07T05:49:32;2.30;99.90
59556;DHT22;45374;52.746;6.304;2022-12-07T05:51:58;2.20;99.90
59556;DHT22;45374;52.746;6.304;2022-12-07T05:54:23;2.30;99.90
59556;DHT22;45374;52.746;6.304;2022-12-07T05:56:49;2.30;99.90
59556;DHT22;45374;52.746;6.304;2022-12-07T05:59:14;2.30;99.90
59556;DHT22;45374;52.746;6.304;2022-12-07T06:01:56;2.30;99.90
59556;DHT22;45374;52.746;6.304;2022-12-07T06:04:23;2.30;99.90
59556;DHT22;45374;52.746;6.304;2022-12-07T06:06:48;2.40;99.90
59556;DHT22;45374;52.746;6.304;2022-12-07T06:09:14;2.40;99.90
59556;DHT22;45374;52.746;6.304;2022-12-07T06:11:40;2.50;99.90
59556;DHT22;45374;52.746;6.304;2022-12-07T06:14:24;2.60;99.90
59556;DHT22;45374;52.746;6.304;2022-12-07T06:16:50;2.70;99.90
59556;DHT22;45374;52.746;6.304;2022-12-07T06:19:16;2.70;99.90
59556;DHT22;45374;52.746;6.304;2022-12-07T06:21:41;2.70;99.90
59556;DHT22;45374;52.746;6.304;2022-12-07T06:24:07;2.80;99.90
59556;DHT22;45374;52.746;6.304;2022-12-07T06:26:34;2.90;99.90
59556;DHT22;45374;52.746;6.304;2022-12-07T06:28:59;3.00;99.90
59556;DHT22;45374;52.746;6.304;2022-12-07T06:31:25;3.00;99.90
59556;DHT22;45374;52.746;6.304;2022-12-07T06:33:50;3.10;99.90
59556;DHT22;45374;52.746;6.304;2022-12-07T06:36:16;3.20;99.90
59556;DHT22;45374;52.746;6.304;2022-12-07T06:38:41;3.20;99.90
59556;DHT22;45374;52.746;6.304;2022-12-07T06:41:07;3.30;99.90
59556;DHT22;45374;52.746;6.304;2022-12-07T06:43:32;3.30;99.90
59556;DHT22;45374;52.746;6.304;2022-12-07T06:45:58;3.30;99.90
59556;DHT22;45374;52.746;6.304;2022-12-07T06:48:23;3.30;99.90
59556;DHT22;45374;52.746;6.304;2022-12-07T06:50:49;3.40;99.90
59556;DHT22;45374;52.746;6.304;2022-12-07T06:53:14;3.40;99.90
59556;DHT22;45374;52.746;6.304;2022-12-07T06:55:40;3.40;99.90
59556;DHT22;45374;52.746;6.304;2022-12-07T06:58:05;3.30;99.90
59556;DHT22;45374;52.746;6.304;2022-12-07T07:00:31;3.20;99.90
59556;DHT22;45374;52.746;6.304;2022-12-07T07:02:56;3.10;99.90
59556;DHT22;45374;52.746;6.304;2022-12-07T07:05:22;3.10;99.90
59556;DHT22;45374;52.746;6.304;2022-12-07T07:07:50;3.00;99.90
59556;DHT22;45374;52.746;6.304;2022-12-07T07:10:16;3.00;99.90
59556;DHT22;45374;52.746;6.304;2022-12-07T07:12:42;2.90;99.90
59556;DHT22;45374;52.746;6.304;2022-12-07T07:15:07;2.90;99.90
59556;DHT22;45374;52.746;6.304;2022-12-07T07:17:33;2.90;99.90
59556;DHT22;45374;52.746;6.304;2022-12-07T07:19:58;2.90;99.90
59556;DHT22;45374;52.746;6.304;2022-12-07T07:22:24;3.00;99.90
59556;DHT22;45374;52.746;6.304;2022-12-07T07:24:49;2.90;99.90
59556;DHT22;45374;52.746;6.304;2022-12-07T07:27:15;2.90;99.90
59556;DHT22;45374;52.746;6.304;2022-12-07T07:29:40;2.80;99.90
59556;DHT22;45374;52.746;6.304;2022-12-07T07:32:06;2.80;99.90
59556;DHT22;45374;52.746;6.304;2022-12-07T07:34:32;2.70;99.90
59556;DHT22;45374;52.746;6.304;2022-12-07T07:36:58;2.60;99.90
59556;DHT22;45374;52.746;6.304;2022-12-07T07:39:24;2.60;99.90
59556;DHT22;45374;52.746;6.304;2022-12-07T07:41:49;2.60;99.90
59556;DHT22;45374;52.746;6.304;2022-12-07T07:44:15;2.80;99.90
59556;DHT22;45374;52.746;6.304;2022-12-07T07:46:40;2.80;99.90
59556;DHT22;45374;52.746;6.304;2022-12-07T07:49:05;2.70;99.90
59556;DHT22;45374;52.746;6.304;2022-12-07T07:51:31;2.70;99.90
59556;DHT22;45374;52.746;6.304;2022-12-07T07:53:56;2.70;99.90
59556;DHT22;45374;52.746;6.304;2022-12-07T07:56:22;2.80;99.90
59556;DHT22;45374;52.746;6.304;2022-12-07T07:58:51;2.80;99.90
59556;DHT22;45374;52.746;6.304;2022-12-07T08:01:16;2.80;99.90
59556;DHT22;45374;52.746;6.304;2022-12-07T08:03:42;2.90;99.90
59556;DHT22;45374;52.746;6.304;2022-12-07T08:06:07;3.00;99.90
59556;DHT22;45374;52.746;6.304;2022-12-07T08:08:33;3.00;99.90
59556;DHT22;45374;52.746;6.304;2022-12-07T08:10:58;3.00;99.90
59556;DHT22;45374;52.746;6.304;2022-12-07T08:13:26;2.90;99.90
59556;DHT22;45374;52.746;6.304;2022-12-07T08:15:53;2.80;99.90
59556;DHT22;45374;52.746;6.304;2022-12-07T08:18:18;2.70;99.90
59556;DHT22;45374;52.746;6.304;2022-12-07T08:20:44;2.50;99.90
59556;DHT22;45374;52.746;6.304;2022-12-07T08:23:09;2.60;99.90
59556;DHT22;45374;52.746;6.304;2022-12-07T08:25:35;2.50;99.90
59556;DHT22;45374;52.746;6.304;2022-12-07T08:28:01;2.40;99.90
59556;DHT22;45374;52.746;6.304;2022-12-07T08:30:27;2.30;99.90
59556;DHT22;45374;52.746;6.304;2022-12-07T08:32:52;2.30;99.90
59556;DHT22;45374;52.746;6.304;2022-12-07T08:35:18;2.40;99.90
59556;DHT22;45374;52.746;6.304;2022-12-07T08:37:43;2.30;99.90
59556;DHT22;45374;52.746;6.304;2022-12-07T08:40:10;2.30;99.90
59556;DHT22;45374;52.746;6.304;2022-12-07T08:42:36;2.30;99.90
59556;DHT22;45374;52.746;6.304;2022-12-07T08:45:06;2.40;99.90
59556;DHT22;45374;52.746;6.304;2022-12-07T08:47:31;2.50;99.90
59556;DHT22;45374;52.746;6.304;2022-12-07T08:49:57;2.70;99.90
59556;DHT22;45374;52.746;6.304;2022-12-07T08:52:31;2.60;99.90
59556;DHT22;45374;52.746;6.304;2022-12-07T08:54:57;2.80;99.90
59556;DHT22;45374;52.746;6.304;2022-12-07T08:57:24;2.80;99.90
59556;DHT22;45374;52.746;6.304;2022-12-07T08:59:49;2.80;99.90
59556;DHT22;45374;52.746;6.304;2022-12-07T09:02:15;2.90;99.90
59556;DHT22;45374;52.746;6.304;2022-12-07T09:04:40;2.90;99.90
59556;DHT22;45374;52.746;6.304;2022-12-07T09:07:06;2.90;99.90
59556;DHT22;45374;52.746;6.304;2022-12-07T09:09:31;3.00;99.90
59556;DHT22;45374;52.746;6.304;2022-12-07T09:11:57;3.10;99.90
59556;DHT22;45374;52.746;6.304;2022-12-07T09:14:22;3.10;99.90
59556;DHT22;45374;52.746;6.304;2022-12-07T09:16:48;3.20;99.90
59556;DHT22;45374;52.746;6.304;2022-12-07T09:19:13;3.20;99.90
59556;DHT22;45374;52.746;6.304;2022-12-07T09:21:39;3.10;99.90
59556;DHT22;45374;52.746;6.304;2022-12-07T09:24:05;3.20;99.90
59556;DHT22;45374;52.746;6.304;2022-12-07T09:26:30;3.30;99.90
59556;DHT22;45374;52.746;6.304;2022-12-07T09:28:56;3.30;99.90
59556;DHT22;45374;52.746;6.304;2022-12-07T09:31:21;3.40;99.90
59556;DHT22;45374;52.746;6.304;2022-12-07T09:33:47;3.60;99.90
59556;DHT22;45374;52.746;6.304;2022-12-07T09:36:17;3.60;99.90
59556;DHT22;45374;52.746;6.304;2022-12-07T09:38:43;3.70;99.90
59556;DHT22;45374;52.746;6.304;2022-12-07T09:41:08;3.90;99.90
59556;DHT22;45374;52.746;6.304;2022-12-07T09:43:35;4.10;99.90
59556;DHT22;45374;52.746;6.304;2022-12-07T09:46:00;4.20;99.90
59556;DHT22;45374;52.746;6.304;2022-12-07T09:48:33;4.30;99.90
59556;DHT22;45374;52.746;6.304;2022-12-07T09:51:00;4.50;99.90
59556;DHT22;45374;52.746;6.304;2022-12-07T09:53:27;4.40;99.90
59556;DHT22;45374;52.746;6.304;2022-12-07T09:55:53;4.50;99.90
59556;DHT22;45374;52.746;6.304;2022-12-07T09:58:20;4.50;99.90
59556;DHT22;45374;52.746;6.304;2022-12-07T10:00:47;4.50;99.90
59556;DHT22;45374;52.746;6.304;2022-12-07T10:03:12;4.60;99.90
59556;DHT22;45374;52.746;6.304;2022-12-07T10:05:39;4.50;99.90
59556;DHT22;45374;52.746;6.304;2022-12-07T10:08:07;4.60;99.90
59556;DHT22;45374;52.746;6.304;2022-12-07T10:10:34;4.50;99.90
59556;DHT22;45374;52.746;6.304;2022-12-07T10:13:10;4.50;99.90
59556;DHT22;45374;52.746;6.304;2022-12-07T10:18:14;4.50;99.90
59556;DHT22;45374;52.746;6.304;2022-12-07T10:20:41;4.50;99.90
59556;DHT22;45374;52.746;6.304;2022-12-07T10:23:13;4.50;99.90
59556;DHT22;45374;52.746;6.304;2022-12-07T10:25:39;4.50;99.90
59556;DHT22;45374;52.746;6.304;2022-12-07T10:31:20;4.50;99.90
59556;DHT22;45374;52.746;6.304;2022-12-07T10:36:00;4.80;99.90
59556;DHT22;45374;52.746;6.304;2022-12-07T10:38:26;5.00;99.90
59556;DHT22;45374;52.746;6.304;2022-12-07T10:41:02;5.20;99.90
59556;DHT22;45374;52.746;6.304;2022-12-07T10:43:28;5.30;99.90
59556;DHT22;45374;52.746;6.304;2022-12-07T10:51:17;5.40;99.90
59556;DHT22;45374;52.746;6.304;2022-12-07T10:56:50;5.50;99.90
59556;DHT22;45374;52.746;6.304;2022-12-07T11:01:57;5.40;99.90
59556;DHT22;45374;52.746;6.304;2022-12-07T11:05:26;5.30;99.90
59556;DHT22;45374;52.746;6.304;2022-12-07T11:07:29;5.20;99.90
59556;DHT22;45374;52.746;6.304;2022-12-07T11:12:47;5.20;99.90
59556;DHT22;45374;52.746;6.304;2022-12-07T11:17:48;5.20;99.90
59556;DHT22;45374;52.746;6.304;2022-12-07T11:20:29;5.20;99.90
59556;DHT22;45374;52.746;6.304;2022-12-07T11:25:38;5.40;99.90
59556;DHT22;45374;52.746;6.304;2022-12-07T11:33:20;5.50;99.90
59556;DHT22;45374;52.746;6.304;2022-12-07T11:41:17;5.40;99.90
59556;DHT22;45374;52.746;6.304;2022-12-07T11:43:56;5.50;99.90
59556;DHT22;45374;52.746;6.304;2022-12-07T11:46:26;5.50;99.90
59556;DHT22;45374;52.746;6.304;2022-12-07T11:51:21;5.60;99.90
59556;DHT22;45374;52.746;6.304;2022-12-07T11:56:14;5.70;99.90
59556;DHT22;45374;52.746;6.304;2022-12-07T12:01:24;5.70;99.90
59556;DHT22;45374;52.746;6.304;2022-12-07T12:06:35;5.80;99.90
59556;DHT22;45374;52.746;6.304;2022-12-07T12:12:01;6.00;99.90
59556;DHT22;45374;52.746;6.304;2022-12-07T12:17:17;6.20;99.90
59556;DHT22;45374;52.746;6.304;2022-12-07T12:22:18;6.30;99.90
59556;DHT22;45374;52.746;6.304;2022-12-07T12:24:47;6.40;99.90
59556;DHT22;45374;52.746;6.304;2022-12-07T12:27:30;6.40;99.90
59556;DHT22;45374;52.746;6.304;2022-12-07T12:30:00;6.50;99.90
59556;DHT22;45374;52.746;6.304;2022-12-07T12:42:45;6.50;99.90
59556;DHT22;45374;52.746;6.304;2022-12-07T12:45:25;6.50;99.90
59556;DHT22;45374;52.746;6.304;2022-12-07T12:47:55;6.40;99.90
59556;DHT22;45374;52.746;6.304;2022-12-07T12:55:22;6.40;99.90
59556;DHT22;45374;52.746;6.304;2022-12-07T13:00:35;6.30;99.90
59556;DHT22;45374;52.746;6.304;2022-12-07T13:03:00;6.30;99.90
59556;DHT22;45374;52.746;6.304;2022-12-07T13:05:27;6.30;99.90
59556;DHT22;45374;52.746;6.304;2022-12-07T13:07:57;6.30;99.90
59556;DHT22;45374;52.746;6.304;2022-12-07T13:10:25;6.30;99.90
59556;DHT22;45374;52.746;6.304;2022-12-07T13:13:05;6.30;99.90
59556;DHT22;45374;52.746;6.304;2022-12-07T13:15:48;6.20;99.90
59556;DHT22;45374;52.746;6.304;2022-12-07T13:20:58;6.20;99.90
59556;DHT22;45374;52.746;6.304;2022-12-07T13:28:32;6.20;99.90
59556;DHT22;45374;52.746;6.304;2022-12-07T13:31:00;6.20;99.90
59556;DHT22;45374;52.746;6.304;2022-12-07T13:33:29;6.20;99.90
59556;DHT22;45374;52.746;6.304;2022-12-07T13:35:55;6.30;99.90
59556;DHT22;45374;52.746;6.304;2022-12-07T13:43:41;6.30;99.90
59556;DHT22;45374;52.746;6.304;2022-12-07T13:46:07;6.30;99.90
59556;DHT22;45374;52.746;6.304;2022-12-07T13:48:44;6.20;99.90
59556;DHT22;45374;52.746;6.304;2022-12-07T13:51:16;6.20;99.90
59556;DHT22;45374;52.746;6.304;2022-12-07T13:53:49;6.00;99.90
59556;DHT22;45374;52.746;6.304;2022-12-07T13:56:15;6.00;99.90
59556;DHT22;45374;52.746;6.304;2022-12-07T13:58:41;5.90;99.90
59556;DHT22;45374;52.746;6.304;2022-12-07T14:01:07;5.80;99.90
59556;DHT22;45374;52.746;6.304;2022-12-07T14:03:33;5.70;99.90
59556;DHT22;45374;52.746;6.304;2022-12-07T14:06:19;5.70;99.90
59556;DHT22;45374;52.746;6.304;2022-12-07T14:08:46;5.60;99.90
59556;DHT22;45374;52.746;6.304;2022-12-07T14:11:16;5.60;99.90
59556;DHT22;45374;52.746;6.304;2022-12-07T14:16:27;5.50;99.90
59556;DHT22;45374;52.746;6.304;2022-12-07T14:18:54;5.40;99.90
59556;DHT22;45374;52.746;6.304;2022-12-07T14:21:22;5.40;99.90
59556;DHT22;45374;52.746;6.304;2022-12-07T14:26:33;5.30;99.90
59556;DHT22;45374;52.746;6.304;2022-12-07T14:31:43;5.10;99.90
59556;DHT22;45374;52.746;6.304;2022-12-07T14:34:11;5.00;99.90
59556;DHT22;45374;52.746;6.304;2022-12-07T14:36:36;4.90;99.90
59556;DHT22;45374;52.746;6.304;2022-12-07T14:39:02;4.90;99.90
59556;DHT22;45374;52.746;6.304;2022-12-07T14:41:27;4.90;99.90
59556;DHT22;45374;52.746;6.304;2022-12-07T14:44:12;4.80;99.90
59556;DHT22;45374;52.746;6.304;2022-12-07T14:46:38;4.70;99.90
59556;DHT22;45374;52.746;6.304;2022-12-07T14:49:03;4.70;99.90
59556;DHT22;45374;52.746;6.304;2022-12-07T14:51:29;4.60;99.90
59556;DHT22;45374;52.746;6.304;2022-12-07T14:53:54;4.50;99.90
59556;DHT22;45374;52.746;6.304;2022-12-07T14:56:20;4.50;99.90
59556;DHT22;45374;52.746;6.304;2022-12-07T14:58:46;4.40;99.90
59556;DHT22;45374;52.746;6.304;2022-12-07T15:01:13;4.40;99.90
59556;DHT22;45374;52.746;6.304;2022-12-07T15:03:39;4.40;99.90
59556;DHT22;45374;52.746;6.304;2022-12-07T15:06:05;4.50;99.90
59556;DHT22;45374;52.746;6.304;2022-12-07T15:08:30;4.50;99.90
59556;DHT22;45374;52.746;6.304;2022-12-07T15:10:56;4.60;99.90
59556;DHT22;45374;52.746;6.304;2022-12-07T15:13:21;4.70;99.90
59556;DHT22;45374;52.746;6.304;2022-12-07T15:16:08;4.70;99.90
59556;DHT22;45374;52.746;6.304;2022-12-07T15:18:35;4.70;99.90
59556;DHT22;45374;52.746;6.304;2022-12-07T15:21:00;4.70;99.90
59556;DHT22;45374;52.746;6.304;2022-12-07T15:23:26;4.60;99.90
59556;DHT22;45374;52.746;6.304;2022-12-07T15:25:51;4.50;99.90
59556;DHT22;45374;52.746;6.304;2022-12-07T15:28:17;4.50;99.90
59556;DHT22;45374;52.746;6.304;2022-12-07T15:30:42;4.40;99.90
59556;DHT22;45374;52.746;6.304;2022-12-07T15:33:09;4.30;99.90
59556;DHT22;45374;52.746;6.304;2022-12-07T15:35:38;4.20;99.90
59556;DHT22;45374;52.746;6.304;2022-12-07T15:38:03;4.20;99.90
59556;DHT22;45374;52.746;6.304;2022-12-07T15:40:29;4.10;99.90
59556;DHT22;45374;52.746;6.304;2022-12-07T15:42:54;4.00;99.90
59556;DHT22;45374;52.746;6.304;2022-12-07T15:45:20;4.00;99.90
59556;DHT22;45374;52.746;6.304;2022-12-07T15:47:45;3.90;99.90
59556;DHT22;45374;52.746;6.304;2022-12-07T15:50:15;3.80;99.90
59556;DHT22;45374;52.746;6.304;2022-12-07T15:52:41;3.80;99.90
59556;DHT22;45374;52.746;6.304;2022-12-07T15:55:07;3.70;99.90
59556;DHT22;45374;52.746;6.304;2022-12-07T15:57:33;3.60;99.90
59556;DHT22;45374;52.746;6.304;2022-12-07T15:59:58;3.50;99.90
59556;DHT22;45374;52.746;6.304;2022-12-07T16:02:24;3.50;99.90
59556;DHT22;45374;52.746;6.304;2022-12-07T16:04:50;3.40;99.90
59556;DHT22;45374;52.746;6.304;2022-12-07T16:07:16;3.30;99.90
59556;DHT22;45374;52.746;6.304;2022-12-07T16:09:42;3.30;99.90
59556;DHT22;45374;52.746;6.304;2022-12-07T16:12:08;3.30;99.90
59556;DHT22;45374;52.746;6.304;2022-12-07T16:14:35;3.30;99.90
59556;DHT22;45374;52.746;6.304;2022-12-07T16:17:00;3.30;99.90
59556;DHT22;45374;52.746;6.304;2022-12-07T16:19:26;3.20;99.90
59556;DHT22;45374;52.746;6.304;2022-12-07T16:21:51;3.20;99.90
59556;DHT22;45374;52.746;6.304;2022-12-07T16:24:17;3.30;99.90
59556;DHT22;45374;52.746;6.304;2022-12-07T16:26:43;3.20;99.90
59556;DHT22;45374;52.746;6.304;2022-12-07T16:29:12;3.30;99.90
59556;DHT22;45374;52.746;6.304;2022-12-07T16:31:37;3.30;99.90
59556;DHT22;45374;52.746;6.304;2022-12-07T16:34:03;3.30;99.90
59556;DHT22;45374;52.746;6.304;2022-12-07T16:36:29;3.40;99.90
59556;DHT22;45374;52.746;6.304;2022-12-07T16:38:54;3.50;99.90
59556;DHT22;45374;52.746;6.304;2022-12-07T16:41:20;3.60;99.90
59556;DHT22;45374;52.746;6.304;2022-12-07T16:43:46;3.60;99.90
59556;DHT22;45374;52.746;6.304;2022-12-07T16:46:11;3.80;99.90
59556;DHT22;45374;52.746;6.304;2022-12-07T16:48:37;3.80;99.90
59556;DHT22;45374;52.746;6.304;2022-12-07T16:51:07;3.80;99.90
59556;DHT22;45374;52.746;6.304;2022-12-07T16:53:36;3.70;99.90
59556;DHT22;45374;52.746;6.304;2022-12-07T16:56:02;3.70;99.90
59556;DHT22;45374;52.746;6.304;2022-12-07T16:58:28;3.60;99.90
59556;DHT22;45374;52.746;6.304;2022-12-07T17:00:54;3.60;99.90
59556;DHT22;45374;52.746;6.304;2022-12-07T17:03:19;3.60;99.90
59556;DHT22;45374;52.746;6.304;2022-12-07T17:05:45;3.60;99.90
59556;DHT22;45374;52.746;6.304;2022-12-07T17:08:11;3.60;99.90
59556;DHT22;45374;52.746;6.304;2022-12-07T17:10:38;3.60;99.90
59556;DHT22;45374;52.746;6.304;2022-12-07T17:13:04;3.50;99.90
59556;DHT22;45374;52.746;6.304;2022-12-07T17:16:03;3.60;99.90
59556;DHT22;45374;52.746;6.304;2022-12-07T17:18:30;3.40;99.90
59556;DHT22;45374;52.746;6.304;2022-12-07T17:21:00;3.50;99.90
59556;DHT22;45374;52.746;6.304;2022-12-07T17:23:26;3.40;99.90
59556;DHT22;45374;52.746;6.304;2022-12-07T17:25:52;3.30;99.90
59556;DHT22;45374;52.746;6.304;2022-12-07T17:28:17;3.40;99.90
59556;DHT22;45374;52.746;6.304;2022-12-07T17:30:43;3.20;99.90
59556;DHT22;45374;52.746;6.304;2022-12-07T17:33:08;3.30;99.90
59556;DHT22;45374;52.746;6.304;2022-12-07T17:35:34;3.20;99.90
59556;DHT22;45374;52.746;6.304;2022-12-07T17:37:59;3.30;99.90
59556;DHT22;45374;52.746;6.304;2022-12-07T17:40:25;3.30;99.90
59556;DHT22;45374;52.746;6.304;2022-12-07T17:42:50;3.30;99.90
59556;DHT22;45374;52.746;6.304;2022-12-07T17:45:16;3.20;99.90
59556;DHT22;45374;52.746;6.304;2022-12-07T17:47:42;3.20;99.90